Time;durP1;ratioP1;P1;durP2;ratioP2;P2;SDS_P1;SDS_P2;PMS_P1;PMS_P2;Temp;Humidity;BMP_temperature;BMP_pressure;BME280_temperature;BME280_humidity;BME280_pressure;Samples;Min_cycle;Max_cycle;Signal;HPM_P1;HPM_P2
2021/05/15 09:35:37;;;;;;;0.90;0.90;;;16.70;66.30;;;;;;5126619;27;20505;-69
2021/05/15 09:38:04;;;;;;;0.80;0.80;;;17.30;64.70;;;;;;5116844;28;20100;-68
2021/05/15 09:40:30;;;;;;;0.95;0.95;;;17.70;63.90;;;;;;5110315;28;20067;-69
2021/05/15 09:42:59;;;;;;;0.80;0.80;;;17.70;61.40;;;;;;5106469;28;20039;-69
2021/05/15 09:45:27;;;;;;;0.90;0.90;;;17.40;61.90;;;;;;5107507;28;20044;-69
2021/05/15 09:48:00;;;;;;;1.20;1.10;;;17.20;62.10;;;;;;5108671;28;20048;-69
2021/05/15 09:50:32;;;;;;;0.90;0.90;;;17.00;63.20;;;;;;5110833;28;20127;-69
2021/05/15 09:53:17;;;;;;;1.10;0.90;;;16.80;63.60;;;;;;5107466;28;20040;-69
2021/05/15 09:55:50;;;;;;;0.95;0.95;;;16.60;64.10;;;;;;5096972;28;21105;-69
2021/05/15 09:58:16;;;;;;;0.93;0.88;;;16.40;64.70;;;;;;5103595;28;20055;-68
2021/05/15 10:00:51;;;;;;;1.02;1.00;;;16.30;64.90;;;;;;5104957;28;20052;-69
2021/05/15 10:03:25;;;;;;;0.93;0.93;;;16.40;66.50;;;;;;5100817;28;20051;-69
2021/05/15 10:06:06;;;;;;;1.20;1.10;;;17.00;65.30;;;;;;5104664;28;20447;-69
2021/05/15 10:08:39;;;;;;;0.95;0.93;;;17.30;63.50;;;;;;5104501;28;20085;-69
2021/05/15 10:11:06;;;;;;;1.80;1.10;;;17.30;62.80;;;;;;5107833;28;20150;-69
2021/05/15 10:13:33;;;;;;;0.80;0.80;;;17.10;62.00;;;;;;5104140;28;20093;-69
2021/05/15 10:16:00;;;;;;;1.38;1.20;;;17.00;62.30;;;;;;5104615;28;20048;-68
2021/05/15 10:18:28;;;;;;;1.10;1.02;;;16.70;62.60;;;;;;5098944;28;20044;-68
2021/05/15 10:20:55;;;;;;;0.93;0.93;;;16.30;63.90;;;;;;5095876;28;20051;-68
2021/05/15 10:23:34;;;;;;;1.00;1.00;;;16.00;65.50;;;;;;5103921;28;20189;-68
2021/05/15 10:26:16;;;;;;;0.90;0.90;;;15.90;66.70;;;;;;5104331;28;20656;-68
2021/05/15 10:28:45;;;;;;;0.65;0.65;;;16.00;67.10;;;;;;5104349;28;20052;-68
2021/05/15 10:31:16;;;;;;;0.80;0.80;;;16.00;67.20;;;;;;5104151;28;20445;-68
2021/05/15 10:33:46;;;;;;;0.70;0.70;;;16.10;67.10;;;;;;5103527;28;20431;-68
2021/05/15 10:36:23;;;;;;;0.52;0.52;;;16.10;66.00;;;;;;5092336;28;20152;-68
2021/05/15 10:38:51;;;;;;;0.60;0.60;;;16.20;65.60;;;;;;5094280;28;20048;-68
2021/05/15 10:41:25;;;;;;;0.55;0.55;;;16.30;65.00;;;;;;5086192;28;20071;-68
2021/05/15 10:43:52;;;;;;;0.60;0.60;;;16.50;64.90;;;;;;5098439;28;20044;-68
2021/05/15 10:46:24;;;;;;;0.70;0.70;;;16.60;65.10;;;;;;5080171;28;20444;-67
2021/05/15 10:49:09;;;;;;;0.60;0.60;;;16.80;66.20;;;;;;5079157;28;20063;-67
2021/05/15 10:51:45;;;;;;;0.60;0.60;;;17.00;64.00;;;;;;5087286;28;20260;-67
2021/05/15 10:54:14;;;;;;;0.63;0.63;;;17.00;63.50;;;;;;5089602;28;20526;-67
2021/05/15 10:56:40;;;;;;;0.60;0.60;;;17.00;63.40;;;;;;5089907;28;20044;-67
2021/05/15 10:59:09;;;;;;;0.70;0.70;;;16.90;63.30;;;;;;5076808;28;20500;-67
2021/05/15 11:01:53;;;;;;;0.70;0.70;;;16.80;63.40;;;;;;5090133;28;20130;-67
2021/05/15 11:04:24;;;;;;;0.70;0.70;;;16.70;64.50;;;;;;5089751;28;20063;-67
2021/05/15 11:07:00;;;;;;;0.88;0.88;;;16.70;65.00;;;;;;5090205;28;20048;-67
2021/05/15 11:09:27;;;;;;;0.65;0.65;;;16.60;64.40;;;;;;5089547;28;20539;-67
2021/05/15 11:12:02;;;;;;;0.60;0.60;;;16.40;63.70;;;;;;5089702;28;20539;-67
2021/05/15 11:14:38;;;;;;;0.55;0.55;;;16.30;63.60;;;;;;5089777;28;20529;-67
2021/05/15 11:17:22;;;;;;;0.63;0.63;;;16.30;63.70;;;;;;5089981;28;20408;-67
2021/05/15 11:20:11;;;;;;;0.50;0.50;;;16.20;63.90;;;;;;5087990;28;20044;-67
2021/05/15 11:22:48;;;;;;;0.40;0.40;;;16.20;64.70;;;;;;5089484;28;20048;-67
2021/05/15 11:25:15;;;;;;;0.50;0.50;;;16.10;63.20;;;;;;5088110;28;20044;-67
2021/05/15 11:28:04;;;;;;;0.57;0.57;;;16.20;64.50;;;;;;5089108;28;20052;-67
2021/05/15 11:30:33;;;;;;;0.50;0.50;;;16.40;64.20;;;;;;5088931;28;20060;-67
2021/05/15 11:33:06;;;;;;;0.40;0.40;;;16.50;63.70;;;;;;5084819;28;20063;-67
2021/05/15 11:35:42;;;;;;;0.50;0.50;;;16.70;63.60;;;;;;5072406;28;20125;-67
2021/05/15 11:38:13;;;;;;;0.60;0.60;;;16.90;63.20;;;;;;5066570;28;20045;-67
2021/05/15 11:41:04;;;;;;;0.50;0.50;;;17.00;62.50;;;;;;5074172;28;20431;-67
2021/05/15 11:43:33;;;;;;;0.60;0.60;;;17.00;62.60;;;;;;5071079;28;20802;-67
2021/05/15 11:46:01;;;;;;;0.68;0.68;;;17.00;61.50;;;;;;5072572;28;20052;-67
2021/05/15 11:48:29;;;;;;;0.40;0.40;;;17.00;60.40;;;;;;5070088;28;20068;-67
2021/05/15 11:51:10;;;;;;;0.50;0.50;;;17.00;60.00;;;;;;5074869;28;20044;-67
2021/05/15 11:53:39;;;;;;;0.50;0.47;;;17.10;60.40;;;;;;5079638;28;20056;-66
2021/05/15 11:56:23;;;;;;;0.40;0.40;;;17.10;60.40;;;;;;5087898;28;20087;-67
2021/05/15 11:58:51;;;;;;;0.50;0.50;;;17.10;60.10;;;;;;5087865;28;20167;-67
2021/05/15 12:01:21;;;;;;;0.57;0.57;;;17.10;60.40;;;;;;5088607;28;20135;-67
2021/05/15 12:03:48;;;;;;;0.70;0.70;;;17.00;59.90;;;;;;5089355;28;20100;-67
2021/05/15 12:06:15;;;;;;;0.60;0.60;;;16.80;60.10;;;;;;5088426;28;20048;-67
2021/05/15 12:08:43;;;;;;;0.65;0.65;;;16.70;60.50;;;;;;5088674;28;20127;-67
2021/05/15 12:11:11;;;;;;;0.50;0.50;;;16.50;59.50;;;;;;5088501;28;20475;-67
2021/05/15 12:13:49;;;;;;;0.60;0.60;;;16.50;60.50;;;;;;5088518;28;20051;-67
2021/05/15 12:16:15;;;;;;;0.45;0.45;;;16.60;59.50;;;;;;5088142;28;20066;-67
2021/05/15 12:18:42;;;;;;;0.50;0.50;;;16.60;60.10;;;;;;5088586;28;20124;-67
2021/05/15 12:21:08;;;;;;;0.52;0.52;;;16.70;60.00;;;;;;5088319;28;20051;-67
2021/05/15 12:23:35;;;;;;;0.52;0.52;;;16.80;59.40;;;;;;5085148;28;20055;-67
2021/05/15 12:26:07;;;;;;;0.68;0.68;;;16.80;59.00;;;;;;5080272;28;20048;-67
2021/05/15 12:28:42;;;;;;;0.60;0.60;;;16.80;59.10;;;;;;5088406;28;20048;-67
2021/05/15 12:31:28;;;;;;;0.50;0.50;;;16.70;59.40;;;;;;5088671;28;20040;-68
2021/05/15 12:33:56;;;;;;;0.50;0.50;;;16.70;59.60;;;;;;5088038;28;20056;-67
2021/05/15 12:36:23;;;;;;;0.50;0.50;;;16.70;58.60;;;;;;5085865;28;20052;-67
2021/05/15 12:38:54;;;;;;;0.52;0.52;;;16.70;58.70;;;;;;5091171;28;20052;-67
2021/05/15 12:41:22;;;;;;;;;;;16.70;59.40;;;;;;5088259;28;20067;-67
2021/05/15 12:44:01;;;;;;;0.60;0.60;;;16.70;59.70;;;;;;5088356;28;19945;-67
2021/05/15 12:46:30;;;;;;;0.50;0.50;;;16.60;60.30;;;;;;5086023;28;20047;-67
2021/05/15 12:48:58;;;;;;;0.68;0.68;;;16.60;61.40;;;;;;5074183;28;20097;-67
2021/05/15 12:51:33;;;;;;;0.60;0.60;;;16.60;61.90;;;;;;5076454;28;20104;-66
2021/05/15 12:54:20;;;;;;;0.38;0.38;;;16.50;61.50;;;;;;5087684;28;20056;-67
2021/05/15 12:56:52;;;;;;;0.60;0.60;;;16.40;61.40;;;;;;5080035;28;20055;-68
2021/05/15 12:59:41;;;;;;;0.60;0.60;;;16.30;62.70;;;;;;5070406;28;20101;-68
2021/05/15 13:02:17;;;;;;;0.70;0.70;;;16.30;63.50;;;;;;5080571;28;20091;-68
2021/05/15 13:05:06;;;;;;;0.40;0.40;;;16.20;63.70;;;;;;5073126;28;20066;-69
2021/05/15 13:07:37;;;;;;;0.60;0.60;;;16.20;63.40;;;;;;5070170;28;20044;-69
2021/05/15 13:10:11;;;;;;;0.63;0.50;;;16.20;64.00;;;;;;5071143;28;20185;-69
2021/05/15 13:12:39;;;;;;;0.38;0.38;;;16.10;63.60;;;;;;5069301;28;20097;-69
2021/05/15 13:15:07;;;;;;;0.35;0.35;;;16.10;62.90;;;;;;5069106;28;20044;-69
2021/05/15 13:17:34;;;;;;;0.30;0.30;;;16.00;62.90;;;;;;5070336;28;20044;-69
2021/05/15 13:20:01;;;;;;;0.40;0.40;;;16.00;63.30;;;;;;5067881;28;20044;-69
2021/05/15 13:22:27;;;;;;;0.40;0.40;;;16.00;63.80;;;;;;5069349;28;20463;-69
2021/05/15 13:24:53;;;;;;;0.50;0.50;;;16.00;64.10;;;;;;5071635;28;20097;-69
2021/05/15 13:27:20;;;;;;;0.30;0.30;;;15.90;63.90;;;;;;5067927;28;20092;-69
2021/05/15 13:29:46;;;;;;;0.30;0.30;;;15.90;63.60;;;;;;5070071;28;20178;-69
2021/05/15 13:32:12;;;;;;;0.50;0.50;;;15.90;63.90;;;;;;5069216;28;20052;-69
2021/05/15 13:34:39;;;;;;;0.40;0.40;;;16.00;64.00;;;;;;5078533;28;20128;-69
2021/05/15 13:37:05;;;;;;;0.28;0.28;;;16.00;64.20;;;;;;5075159;28;20130;-69
2021/05/15 13:39:31;;;;;;;0.50;0.50;;;15.90;64.10;;;;;;5087647;28;20097;-69
2021/05/15 13:41:58;;;;;;;0.40;0.40;;;15.90;64.50;;;;;;5087518;28;20495;-69
2021/05/15 13:44:24;;;;;;;0.40;0.40;;;15.90;65.00;;;;;;5087598;28;20048;-68
2021/05/15 13:46:51;;;;;;;0.43;0.40;;;15.90;65.50;;;;;;5087320;28;20067;-71
2021/05/15 13:49:20;;;;;;;0.40;0.40;;;15.90;65.50;;;;;;5087225;28;20048;-68
2021/05/15 13:51:46;;;;;;;0.20;0.20;;;15.80;66.80;;;;;;5086937;28;20101;-65
2021/05/15 13:54:13;;;;;;;0.30;0.30;;;15.80;66.20;;;;;;5087143;28;20052;-68
2021/05/15 13:56:39;;;;;;;0.38;0.38;;;15.80;67.70;;;;;;5087057;28;20048;-68
2021/05/15 13:59:05;;;;;;;0.40;0.40;;;15.70;69.00;;;;;;5086986;28;20637;-68
2021/05/15 14:01:32;;;;;;;0.35;0.35;;;15.60;69.50;;;;;;5086898;28;20104;-68
2021/05/15 14:03:58;;;;;;;0.30;0.30;;;15.50;70.60;;;;;;5087185;28;20155;-68
2021/05/15 14:06:26;;;;;;;0.28;0.28;;;15.40;70.90;;;;;;5086580;28;20080;-68
2021/05/15 14:08:52;;;;;;;0.35;0.35;;;15.30;71.60;;;;;;5087070;28;20044;-68
2021/05/15 14:11:18;;;;;;;0.30;0.30;;;15.30;72.40;;;;;;5087090;28;20568;-68
2021/05/15 14:13:45;;;;;;;0.20;0.20;;;15.20;72.60;;;;;;5086645;28;20507;-68
2021/05/15 14:16:11;;;;;;;0.30;0.30;;;15.20;72.60;;;;;;5086528;28;20044;-68
2021/05/15 14:18:37;;;;;;;0.40;0.40;;;15.30;73.00;;;;;;5086713;28;20131;-68
2021/05/15 14:21:04;;;;;;;0.20;0.20;;;15.30;73.20;;;;;;5087970;28;20133;-68
2021/05/15 14:23:30;;;;;;;0.35;0.35;;;15.30;73.30;;;;;;5088410;28;20053;-70
2021/05/15 14:25:56;;;;;;;0.30;0.30;;;15.40;74.10;;;;;;5086549;28;20052;-65
2021/05/15 14:28:23;;;;;;;0.30;0.30;;;15.40;73.60;;;;;;5085176;28;20063;-64
2021/05/15 14:30:49;;;;;;;0.30;0.30;;;15.50;73.40;;;;;;5090835;28;20098;-65
2021/05/15 14:33:15;;;;;;;0.40;0.40;;;15.50;73.30;;;;;;5090516;28;20064;-65
2021/05/15 14:35:42;;;;;;;0.35;0.35;;;15.50;73.70;;;;;;5086409;28;20119;-64
2021/05/15 14:38:08;;;;;;;0.40;0.40;;;15.50;74.00;;;;;;5077963;28;20043;-64
2021/05/15 14:40:36;;;;;;;0.30;0.30;;;15.50;74.20;;;;;;5083941;28;20131;-64
2021/05/15 14:43:04;;;;;;;0.50;0.50;;;15.40;74.50;;;;;;5088237;28;20069;-66
2021/05/15 14:45:30;;;;;;;0.40;0.40;;;15.30;75.50;;;;;;5089837;28;20056;-65
2021/05/15 14:47:57;;;;;;;0.30;0.30;;;15.00;75.10;;;;;;5086065;28;20048;-65
2021/05/15 14:50:23;;;;;;;0.20;0.20;;;14.90;74.50;;;;;;5088558;28;20094;-66
2021/05/15 14:52:49;;;;;;;0.30;0.30;;;14.80;73.90;;;;;;5079235;28;20106;-64
2021/05/15 14:55:16;;;;;;;0.30;0.30;;;14.70;73.80;;;;;;5077164;28;20048;-65
2021/05/15 14:57:42;;;;;;;0.30;0.30;;;14.70;74.20;;;;;;5074303;28;20148;-64
2021/05/15 15:00:11;;;;;;;0.30;0.30;;;14.70;74.50;;;;;;5083574;28;20070;-66
2021/05/15 15:02:38;;;;;;;0.50;0.50;;;14.80;74.80;;;;;;5085166;28;20055;-67
2021/05/15 15:05:06;;;;;;;0.40;0.40;;;14.80;75.00;;;;;;5078586;28;20049;-64
2021/05/15 15:07:33;;;;;;;0.30;0.30;;;14.90;75.10;;;;;;5081435;28;20054;-64
2021/05/15 15:09:59;;;;;;;0.40;0.40;;;15.00;75.40;;;;;;5078048;28;20079;-66
2021/05/15 15:12:26;;;;;;;0.40;0.40;;;15.00;75.50;;;;;;5089372;28;20108;-65
2021/05/15 15:14:53;;;;;;;0.47;0.47;;;15.00;74.90;;;;;;5094259;28;20047;-65
2021/05/15 15:17:19;;;;;;;1.30;0.60;;;15.00;74.80;;;;;;5095589;28;20060;-64
2021/05/15 15:19:46;;;;;;;0.60;0.60;;;15.00;74.80;;;;;;5085394;28;20130;-65
2021/05/15 15:22:12;;;;;;;0.60;0.60;;;15.00;75.10;;;;;;5090129;28;20782;-64
2021/05/15 15:24:38;;;;;;;0.60;0.60;;;14.90;75.40;;;;;;5089616;28;20040;-64
2021/05/15 15:27:05;;;;;;;0.50;0.50;;;14.90;75.90;;;;;;5076189;28;20056;-65
2021/05/15 15:29:31;;;;;;;0.45;0.45;;;14.80;76.20;;;;;;5090454;28;20808;-64
2021/05/15 15:31:58;;;;;;;0.50;0.50;;;14.70;76.50;;;;;;5089068;28;20055;-63
2021/05/15 15:34:25;;;;;;;0.50;0.50;;;14.60;77.10;;;;;;5089900;28;20144;-64
2021/05/15 15:36:51;;;;;;;0.35;0.35;;;14.50;76.80;;;;;;5090041;28;20104;-64
2021/05/15 15:39:18;;;;;;;0.32;0.32;;;14.40;76.20;;;;;;5090101;28;20085;-64
2021/05/15 15:41:44;;;;;;;0.22;0.22;;;14.40;76.10;;;;;;5090005;28;20052;-64
2021/05/15 15:44:11;;;;;;;0.20;0.20;;;14.40;76.00;;;;;;5090002;28;20536;-64
2021/05/15 15:46:37;;;;;;;0.40;0.40;;;14.30;76.10;;;;;;5090250;28;20158;-64
2021/05/15 15:49:04;;;;;;;0.10;0.10;;;14.30;76.10;;;;;;5088418;28;20555;-64
2021/05/15 15:51:32;;;;;;;0.10;0.10;;;14.30;76.10;;;;;;5089586;28;20056;-64
2021/05/15 15:53:58;;;;;;;0.20;0.20;;;14.30;76.00;;;;;;5090027;28;20225;-64
2021/05/15 15:56:25;;;;;;;0.20;0.20;;;14.30;76.00;;;;;;5090107;28;20044;-64
2021/05/15 15:58:51;;;;;;;0.10;0.10;;;14.30;76.20;;;;;;5078179;28;20057;-64
2021/05/15 16:01:17;;;;;;;0.20;0.20;;;14.40;76.10;;;;;;5087677;28;20097;-64
2021/05/15 16:03:44;;;;;;;0.30;0.30;;;14.40;76.30;;;;;;5089617;28;20427;-64
2021/05/15 16:06:10;;;;;;;0.13;0.13;;;14.50;76.50;;;;;;5088781;28;20124;-64
2021/05/15 16:08:36;;;;;;;0.10;0.10;;;14.50;76.50;;;;;;5070539;28;20052;-66
2021/05/15 16:11:04;;;;;;;0.30;0.30;;;14.60;76.50;;;;;;5070171;28;20052;-69
2021/05/15 16:13:32;;;;;;;0.20;0.20;;;14.60;76.20;;;;;;5078302;28;20204;-68
2021/05/15 16:15:58;;;;;;;0.10;0.10;;;14.60;76.20;;;;;;5082105;28;20052;-68
2021/05/15 16:18:25;;;;;;;0.10;0.10;;;14.70;76.20;;;;;;5088757;28;20054;-66
2021/05/15 16:20:51;;;;;;;0.20;0.20;;;14.70;76.00;;;;;;5088928;28;20047;-68
2021/05/15 16:23:18;;;;;;;0.20;0.20;;;14.80;76.10;;;;;;5089162;28;20488;-69
2021/05/15 16:25:44;;;;;;;0.20;0.20;;;14.80;76.00;;;;;;5089142;28;20059;-68
2021/05/15 16:28:10;;;;;;;0.30;0.30;;;14.80;75.70;;;;;;5081264;28;20476;-68
2021/05/15 16:30:37;;;;;;;0.20;0.20;;;14.80;75.60;;;;;;5082958;28;20139;-68
2021/05/15 16:33:04;;;;;;;0.32;0.32;;;14.90;75.50;;;;;;5086947;28;20086;-68
2021/05/15 16:35:31;;;;;;;0.30;0.30;;;14.90;75.50;;;;;;5082964;28;20056;-68
2021/05/15 16:37:57;;;;;;;0.30;0.30;;;14.90;75.50;;;;;;5081287;28;20048;-68
2021/05/15 16:40:24;;;;;;;0.30;0.30;;;15.00;75.40;;;;;;5077340;28;20551;-68
2021/05/15 16:42:50;;;;;;;0.30;0.30;;;15.00;75.30;;;;;;5080584;28;20044;-68
2021/05/15 16:45:16;;;;;;;0.20;0.20;;;15.00;75.40;;;;;;5087831;28;20504;-68
2021/05/15 16:47:43;;;;;;;0.60;0.60;;;15.00;75.40;;;;;;5084666;28;20051;-68
2021/05/15 16:50:11;;;;;;;0.40;0.40;;;15.00;75.10;;;;;;5069589;28;20131;-68
2021/05/15 16:52:38;;;;;;;0.30;0.30;;;15.00;75.00;;;;;;5077196;28;20057;-68
2021/05/15 16:55:05;;;;;;;0.40;0.40;;;15.00;74.90;;;;;;5076595;28;20472;-68
2021/05/15 16:57:32;;;;;;;0.38;0.38;;;15.10;75.00;;;;;;5087684;28;20059;-68
2021/05/15 16:59:58;;;;;;;0.20;0.20;;;15.10;75.00;;;;;;5087642;28;20061;-68
2021/05/15 17:02:24;;;;;;;0.30;0.30;;;15.10;75.00;;;;;;5087593;28;20074;-68
2021/05/15 17:04:51;;;;;;;0.40;0.40;;;15.10;75.00;;;;;;5087415;28;20151;-68
2021/05/15 17:07:17;;;;;;;0.30;0.30;;;15.20;75.00;;;;;;5087907;28;20059;-68
2021/05/15 17:09:44;;;;;;;0.20;0.20;;;15.20;75.20;;;;;;5085619;28;20363;-68
2021/05/15 17:12:10;;;;;;;0.40;0.40;;;15.20;75.20;;;;;;5084598;28;20549;-69
2021/05/15 17:14:39;;;;;;;0.20;0.20;;;15.20;75.20;;;;;;5087305;28;20051;-68
2021/05/15 17:17:06;;;;;;;0.28;0.28;;;15.30;75.30;;;;;;5087375;28;20150;-69
2021/05/15 17:19:32;;;;;;;0.57;0.57;;;15.30;75.10;;;;;;5078732;28;20061;-69
2021/05/15 17:21:59;;;;;;;0.50;0.38;;;15.30;75.30;;;;;;5087237;28;20454;-68
2021/05/15 17:24:26;;;;;;;0.40;0.40;;;15.30;75.50;;;;;;5086430;28;20055;-68
2021/05/15 17:26:53;;;;;;;0.32;0.32;;;15.30;75.70;;;;;;5085388;28;20052;-68
2021/05/15 17:29:19;;;;;;;0.30;0.30;;;15.30;75.70;;;;;;5086041;28;20063;-69
2021/05/15 17:31:45;;;;;;;0.55;0.55;;;15.40;75.80;;;;;;5087088;28;20574;-69
2021/05/15 17:34:12;;;;;;;0.80;0.80;;;15.30;75.90;;;;;;5086158;28;20052;-68
2021/05/15 17:36:38;;;;;;;0.70;0.70;;;15.40;75.30;;;;;;5079090;28;20428;-68
2021/05/15 17:39:05;;;;;;;0.77;0.70;;;15.30;74.70;;;;;;5067962;28;20119;-68
2021/05/15 17:41:31;;;;;;;0.60;0.60;;;15.30;73.60;;;;;;5066712;28;20109;-68
2021/05/15 17:43:58;;;;;;;0.77;0.70;;;15.30;73.40;;;;;;5067452;28;20123;-68
2021/05/15 17:46:24;;;;;;;0.73;0.73;;;15.30;72.80;;;;;;5067794;28;20056;-68
2021/05/15 17:48:50;;;;;;;0.50;0.50;;;15.20;72.50;;;;;;5067489;28;20102;-68
2021/05/15 17:51:18;;;;;;;0.77;0.77;;;15.10;72.40;;;;;;5076790;28;20431;-68
2021/05/15 17:53:48;;;;;;;0.90;0.85;;;15.10;72.70;;;;;;5087009;28;20048;-67
2021/05/15 17:56:17;;;;;;;0.68;0.63;;;15.10;72.60;;;;;;5088998;28;20048;-67
2021/05/15 17:58:44;;;;;;;0.60;0.60;;;15.00;72.60;;;;;;5091178;28;20044;-68
2021/05/15 18:01:14;;;;;;;0.80;0.80;;;15.00;72.90;;;;;;5090462;28;20501;-70
2021/05/15 18:03:41;;;;;;;0.80;0.80;;;15.00;73.20;;;;;;5090973;28;20512;-68
2021/05/15 18:06:07;;;;;;;0.65;0.65;;;15.00;73.30;;;;;;5091300;28;20055;-70
2021/05/15 18:08:34;;;;;;;0.80;0.80;;;15.00;73.40;;;;;;5091264;28;20080;-70
2021/05/15 18:11:02;;;;;;;0.50;0.50;;;15.00;73.90;;;;;;5090316;28;20299;-70
2021/05/15 18:13:28;;;;;;;0.60;0.60;;;15.00;73.90;;;;;;5090459;28;20047;-70
2021/05/15 18:16:01;;;;;;;0.70;0.70;;;15.10;73.90;;;;;;5091164;28;20154;-69
2021/05/15 18:18:28;;;;;;;0.50;0.50;;;15.10;73.60;;;;;;5085773;28;20048;-71
2021/05/15 18:20:55;;;;;;;0.52;0.52;;;15.10;73.30;;;;;;5088291;28;20048;-69
2021/05/15 18:23:23;;;;;;;0.60;0.60;;;15.10;74.10;;;;;;5084587;28;20044;-70
2021/05/15 18:25:50;;;;;;;0.40;0.40;;;15.10;73.30;;;;;;5089496;28;20048;-70
2021/05/15 18:28:17;;;;;;;0.47;0.47;;;15.10;74.10;;;;;;5090713;28;20084;-70
2021/05/15 18:30:44;;;;;;;0.50;0.50;;;15.10;73.00;;;;;;5090236;28;20052;-70
2021/05/15 18:33:10;;;;;;;0.50;0.50;;;15.10;72.60;;;;;;5090298;28;20059;-69
2021/05/15 18:35:37;;;;;;;0.45;0.45;;;15.10;72.80;;;;;;5089946;28;20052;-70
2021/05/15 18:38:05;;;;;;;0.43;0.43;;;15.10;73.00;;;;;;5089154;28;20048;-70
2021/05/15 18:40:33;;;;;;;0.40;0.40;;;15.10;73.00;;;;;;5090308;28;20048;-70
2021/05/15 18:43:00;;;;;;;0.40;0.40;;;15.10;73.00;;;;;;5091139;28;20051;-71
2021/05/15 18:45:27;;;;;;;0.60;0.60;;;15.10;72.40;;;;;;5090110;28;20063;-69
2021/05/15 18:47:53;;;;;;;0.50;0.50;;;15.00;72.30;;;;;;5091764;28;20052;-69
2021/05/15 18:50:19;;;;;;;0.50;0.50;;;15.00;72.30;;;;;;5090224;28;20548;-70
2021/05/15 18:52:46;;;;;;;0.47;0.45;;;14.90;72.30;;;;;;5088802;28;20563;-70
2021/05/15 18:55:13;;;;;;;0.40;0.40;;;14.90;72.10;;;;;;5089103;28;20052;-70
2021/05/15 18:57:46;;;;;;;0.50;0.50;;;14.90;72.00;;;;;;5089085;28;20129;-70
2021/05/15 19:00:17;;;;;;;0.63;0.50;;;14.80;72.40;;;;;;5090183;28;20166;-71
2021/05/15 19:02:45;;;;;;;0.47;0.47;;;14.80;72.50;;;;;;5089673;28;20036;-70
2021/05/15 19:05:13;;;;;;;0.40;0.40;;;14.80;72.80;;;;;;5089852;28;20044;-70
2021/05/15 19:07:40;;;;;;;0.52;0.52;;;14.80;73.00;;;;;;5089323;28;20055;-70
2021/05/15 19:10:08;;;;;;;0.60;0.60;;;14.70;73.90;;;;;;5096193;28;20044;-70
2021/05/15 19:12:35;;;;;;;0.52;0.52;;;14.70;73.00;;;;;;5092844;28;20048;-70
2021/05/15 19:15:03;;;;;;;0.47;0.47;;;14.70;73.10;;;;;;5089715;28;20127;-69
2021/05/15 19:17:29;;;;;;;0.38;0.38;;;14.60;73.00;;;;;;5086456;28;20047;-70
2021/05/15 19:19:58;;;;;;;0.50;0.50;;;14.60;72.80;;;;;;5088164;28;20044;-70
2021/05/15 19:22:26;;;;;;;0.40;0.40;;;14.60;73.10;;;;;;5089885;28;20128;-70
2021/05/15 19:24:53;;;;;;;0.28;0.28;;;14.60;72.80;;;;;;5088585;28;20123;-70
2021/05/15 19:27:23;;;;;;;0.60;0.60;;;14.50;72.70;;;;;;5071462;28;20056;-70
2021/05/15 19:29:50;;;;;;;0.60;0.60;;;14.50;72.70;;;;;;5089315;28;20056;-69
2021/05/15 19:32:16;;;;;;;0.47;0.47;;;14.50;72.70;;;;;;5088961;28;20556;-70
2021/05/15 19:34:44;;;;;;;0.50;0.50;;;14.40;72.60;;;;;;5088247;28;20694;-69
2021/05/15 19:37:10;;;;;;;0.30;0.30;;;14.40;72.80;;;;;;5088683;28;20611;-70
2021/05/15 19:39:36;;;;;;;0.40;0.40;;;14.30;72.70;;;;;;5074108;28;20060;-70
2021/05/15 19:42:04;;;;;;;0.40;0.40;;;14.30;72.70;;;;;;5089168;28;20051;-70
2021/05/15 19:44:30;;;;;;;0.40;0.40;;;14.30;72.60;;;;;;5086779;28;20092;-70
2021/05/15 19:46:57;;;;;;;0.40;0.40;;;14.30;72.60;;;;;;5090005;28;20135;-70
2021/05/15 19:49:24;;;;;;;0.32;0.32;;;14.20;72.40;;;;;;5075266;28;20181;-69
2021/05/15 19:51:52;;;;;;;0.40;0.40;;;14.30;72.30;;;;;;5079293;28;20226;-69
2021/05/15 19:54:30;;;;;;;0.40;0.40;;;14.20;72.20;;;;;;5087215;28;20048;-69
2021/05/15 19:56:56;;;;;;;0.40;0.40;;;14.20;73.20;;;;;;5083753;28;20131;-70
2021/05/15 19:59:23;;;;;;;0.43;0.43;;;14.20;72.10;;;;;;5086819;28;20097;-70
2021/05/15 20:01:49;;;;;;;0.30;0.30;;;14.10;72.00;;;;;;5082718;28;20088;-70
2021/05/15 20:04:17;;;;;;;0.40;0.40;;;14.10;72.00;;;;;;5076097;28;20048;-67
2021/05/15 20:06:46;;;;;;;0.38;0.38;;;14.10;71.90;;;;;;5063797;28;20048;-69
2021/05/15 20:09:13;;;;;;;0.30;0.30;;;14.10;71.90;;;;;;5089670;28;20055;-69
2021/05/15 20:11:41;;;;;;;0.60;0.60;;;14.00;71.80;;;;;;5088585;28;20522;-70
2021/05/15 20:14:08;;;;;;;0.40;0.40;;;14.00;71.70;;;;;;5089529;28;20181;-69
2021/05/15 20:16:34;;;;;;;0.45;0.45;;;14.00;71.80;;;;;;5074118;28;20131;-69
2021/05/15 20:19:04;;;;;;;0.35;0.35;;;14.00;71.90;;;;;;5067081;28;20048;-68
2021/05/15 20:21:31;;;;;;;0.40;0.40;;;14.00;71.90;;;;;;5068462;28;20082;-69
2021/05/15 20:23:58;;;;;;;0.40;0.40;;;14.00;71.90;;;;;;5070725;28;20154;-69
2021/05/15 20:26:25;;;;;;;0.30;0.30;;;14.00;72.00;;;;;;5072965;28;20492;-70
2021/05/15 20:28:53;;;;;;;0.20;0.20;;;14.00;72.10;;;;;;5071994;28;20513;-69
2021/05/15 20:31:21;;;;;;;0.30;0.30;;;14.00;72.20;;;;;;5069570;28;20063;-69
2021/05/15 20:33:48;;;;;;;0.22;0.22;;;13.90;72.30;;;;;;5070149;28;20064;-68
2021/05/15 20:36:14;;;;;;;0.38;0.38;;;13.90;72.50;;;;;;5071829;28;20602;-69
2021/05/15 20:38:41;;;;;;;0.32;0.32;;;13.90;72.60;;;;;;5083035;28;20058;-69
2021/05/15 20:41:08;;;;;;;0.35;0.35;;;13.90;72.70;;;;;;5088592;28;20067;-69
2021/05/15 20:43:34;;;;;;;0.30;0.30;;;13.90;72.80;;;;;;5088027;28;20055;-69
2021/05/15 20:46:01;;;;;;;0.40;0.40;;;13.90;72.90;;;;;;5088419;28;20452;-69
2021/05/15 20:48:34;;;;;;;0.60;0.60;;;13.90;73.00;;;;;;5088066;28;20177;-69
2021/05/15 20:51:11;;;;;;;0.38;0.38;;;13.80;73.20;;;;;;5087483;28;20075;-69
2021/05/15 20:53:39;;;;;;;0.47;0.47;;;13.80;73.20;;;;;;5087886;28;20048;-69
2021/05/15 20:56:09;;;;;;;0.40;0.40;;;13.70;73.20;;;;;;5087734;28;20467;-69
2021/05/15 20:58:36;;;;;;;0.30;0.30;;;13.70;73.20;;;;;;5088035;28;20667;-69
2021/05/15 21:01:04;;;;;;;0.50;0.50;;;13.70;73.30;;;;;;5087861;28;20442;-69
2021/05/15 21:03:30;;;;;;;0.30;0.30;;;13.70;73.30;;;;;;5088146;28;20445;-69
2021/05/15 21:05:57;;;;;;;0.30;0.30;;;13.70;73.20;;;;;;5087863;28;20048;-69
2021/05/15 21:08:24;;;;;;;0.20;0.20;;;13.70;73.30;;;;;;5088035;28;20189;-69
2021/05/15 21:10:52;;;;;;;0.40;0.40;;;13.70;73.30;;;;;;5087795;28;20060;-69
2021/05/15 21:13:19;;;;;;;0.32;0.32;;;13.70;73.40;;;;;;5087725;28;20427;-69
2021/05/15 21:15:45;;;;;;;0.50;0.50;;;13.70;73.60;;;;;;5087466;28;20056;-69
2021/05/15 21:18:12;;;;;;;0.40;0.40;;;13.70;73.90;;;;;;5087636;28;20051;-69
2021/05/15 21:20:38;;;;;;;0.40;0.40;;;13.70;73.90;;;;;;5087560;28;20130;-69
2021/05/15 21:23:06;;;;;;;0.40;0.40;;;13.70;74.10;;;;;;5087050;28;20083;-69
2021/05/15 21:25:34;;;;;;;0.40;0.40;;;13.70;74.50;;;;;;5086550;28;20069;-69
2021/05/15 21:28:01;;;;;;;0.30;0.30;;;13.70;74.50;;;;;;5087446;28;20044;-69
2021/05/15 21:30:28;;;;;;;0.50;0.50;;;13.60;74.50;;;;;;5087471;28;20044;-69
2021/05/15 21:32:54;;;;;;;0.50;0.50;;;13.70;74.70;;;;;;5087495;28;20544;-69
2021/05/15 21:35:21;;;;;;;0.40;0.40;;;13.70;75.00;;;;;;5086634;28;20431;-69
2021/05/15 21:37:47;;;;;;;0.40;0.40;;;13.70;74.90;;;;;;5087001;28;20052;-69
2021/05/15 21:40:17;;;;;;;0.30;0.30;;;13.60;74.90;;;;;;5087498;28;20511;-69
2021/05/15 21:42:43;;;;;;;0.30;0.30;;;13.60;74.80;;;;;;5087332;28;20048;-69
2021/05/15 21:45:12;;;;;;;0.40;0.40;;;13.70;75.00;;;;;;5087834;28;20084;-69
2021/05/15 21:47:39;;;;;;;0.30;0.30;;;13.60;75.00;;;;;;5087263;28;20104;-69
2021/05/15 21:50:11;;;;;;;0.30;0.30;;;13.70;75.10;;;;;;5087237;28;20062;-69
2021/05/15 21:52:39;;;;;;;0.22;0.22;;;13.70;75.20;;;;;;5087200;28;20051;-69
2021/05/15 21:55:07;;;;;;;0.38;0.38;;;13.70;75.20;;;;;;5087611;28;20059;-69
2021/05/15 21:57:35;;;;;;;0.30;0.30;;;13.70;75.30;;;;;;5084199;28;20079;-69
2021/05/15 22:00:18;;;;;;;0.40;0.40;;;13.70;75.50;;;;;;5087048;28;20040;-69
2021/05/15 22:02:44;;;;;;;0.20;0.20;;;13.70;75.60;;;;;;5083202;28;20059;-70
2021/05/15 22:05:10;;;;;;;0.35;0.35;;;13.70;75.70;;;;;;5087507;28;20045;-69
2021/05/15 22:07:36;;;;;;;0.30;0.30;;;13.70;76.00;;;;;;5086615;28;20131;-69
2021/05/15 22:10:04;;;;;;;0.40;0.40;;;13.70;76.20;;;;;;5087074;28;20052;-69
2021/05/15 22:12:30;;;;;;;0.30;0.30;;;13.70;76.40;;;;;;5087012;28;20472;-69
2021/05/15 22:14:56;;;;;;;0.40;0.40;;;13.70;76.50;;;;;;5086534;28;20096;-69
2021/05/15 22:17:23;;;;;;;0.30;0.30;;;13.70;76.50;;;;;;5086986;28;20052;-69
2021/05/15 22:19:49;;;;;;;0.20;0.20;;;13.70;76.50;;;;;;5086716;28;20048;-69
2021/05/15 22:22:16;;;;;;;0.40;0.40;;;13.70;76.50;;;;;;5086898;28;20552;-69
2021/05/15 22:24:42;;;;;;;0.28;0.28;;;13.70;76.50;;;;;;5086987;28;20068;-69
2021/05/15 22:27:09;;;;;;;0.40;0.40;;;13.70;76.50;;;;;;5086897;28;20581;-69
2021/05/15 22:29:36;;;;;;;0.30;0.30;;;13.70;76.50;;;;;;5087120;28;20100;-69